Etusivu
METAR-TAF:

METAR-TAF

Lentoasemat :

Locarno, Sveitsi

Leveyspiiri: 46-09-55N, Pituuspiiri: 8-52-40E, korkeus merenpinnasta: 198 m

Tämänhetkinen sää

Tämä raportti tehtiin 37 minuuttia sitten, kello 09.50 UTC
Tuuli 1 kn eri suunnista
Lämpötila 9°C
Kosteus 37%
Ilmanpaine 1022 hPa
Näkyvyys 10 km tai enemmän
ei pilviä alle 1500 m:ssä eikä cumulonimbus-pilviä

METAR: LSZL 190950Z VRB01KT CAVOK 09/M05 Q1022 RMK BLU

Aika: 11:27 (10:27 UTC)

Sääennuste

Tämä raportti tehtiin 5 tuntia ja 2 minuuttia sitten, kello 05.25 UTC
Ennuste voimassa 19. päivästä klo 06 UTC - 19. päivään klo 15 UTC
Tuuli 3 kn eri suunnista
Näkyvyys 10 km tai enemmän
ei pilviä alle 1500 m:ssä eikä cumulonimbus-pilviä

TAF: LSZL 190525Z 1906/1915 VRB03KT CAVOK

Säähavainnot ja -ennusteet yli 4000 lentoasemalta (METAR- ja TAF-raportit).

Käytössä olevat sääasemat on merkitty karttaan keltaisilla ja punaisilla pisteillä.

Aseta hiiri pisteen päälle nähdäksesi sääaseman nimen.

Klikkaa sitten nähdäksesi säähavainnot ja -ennusteet.

Kartan vaihtaminen: klikkaa mustalla rastilla varustettuja vihreitä pisteitä, niin voit zoomata sisään; viivalla varustettua vihreää pistettä, niin voit zoomata ulos tai vihreitä nuolia, niin pääset viereisille kartoille.


METAR-TAF: